createdAt,value
2022-10-04T00:01:50.555Z,65.22
2022-10-04T00:04:45.068Z,65.26
2022-10-04T00:07:12.540Z,65.52
2022-10-04T00:09:50.605Z,65.46
2022-10-04T00:12:24.109Z,65.51
2022-10-04T00:14:55.421Z,65.49
2022-10-04T00:17:31.621Z,65.58
2022-10-04T00:19:59.387Z,65.62
2022-10-04T00:22:29.916Z,65.64
2022-10-04T00:25:17.458Z,65.78
2022-10-04T00:28:17.195Z,65.74
2022-10-04T00:30:44.968Z,65.81
2022-10-04T00:33:35.344Z,65.78
2022-10-04T00:36:25.428Z,65.89
2022-10-04T00:39:12.030Z,65.93
2022-10-04T00:41:52.775Z,66.02
2022-10-04T00:44:36.292Z,66.06
2022-10-04T00:47:21.761Z,66.05
2022-10-04T00:49:57.819Z,66.20
2022-10-04T00:52:29.861Z,66.26
2022-10-04T00:55:05.916Z,66.33
2022-10-04T00:57:44.963Z,66.30
2022-10-04T01:00:18.040Z,66.32
2022-10-04T01:02:55.103Z,66.35
2022-10-04T01:05:45.322Z,66.48
2022-10-04T01:08:13.908Z,66.55
2022-10-04T01:10:52.391Z,66.60
2022-10-04T01:13:23.561Z,66.68
2022-10-04T01:16:17.771Z,66.77
2022-10-04T01:18:48.837Z,66.70
2022-10-04T01:21:19.666Z,66.77
2022-10-04T01:23:50.683Z,66.78
2022-10-04T01:26:38.000Z,66.92
2022-10-04T01:29:26.759Z,66.81
2022-10-04T01:31:57.373Z,66.97
2022-10-04T01:34:29.240Z,66.86
2022-10-04T01:37:00.546Z,66.95
2022-10-04T01:39:29.042Z,66.83
2022-10-04T01:42:16.839Z,66.92
2022-10-04T01:45:03.574Z,66.89
2022-10-04T01:47:39.414Z,66.93
2022-10-04T01:50:16.069Z,66.94
2022-10-04T01:53:08.669Z,67.01
2022-10-04T01:55:42.057Z,67.17
2022-10-04T01:58:16.907Z,67.23
2022-10-04T02:00:57.651Z,67.31
2022-10-04T02:03:36.859Z,67.22
2022-10-04T02:06:09.627Z,67.37
2022-10-04T02:08:50.507Z,67.37
2022-10-04T02:11:22.339Z,67.31
2022-10-04T02:13:54.502Z,67.51
2022-10-04T02:16:25.012Z,67.45
2022-10-04T02:18:54.363Z,67.54
2022-10-04T02:21:24.776Z,67.58
2022-10-04T02:23:54.682Z,67.63
2022-10-04T02:26:22.835Z,67.64
2022-10-04T02:28:51.747Z,67.67
2022-10-04T02:31:39.050Z,67.72
2022-10-04T02:34:07.605Z,67.64
2022-10-04T02:36:36.591Z,67.88
2022-10-04T02:39:08.096Z,67.89
2022-10-04T02:41:44.154Z,67.81
2022-10-04T02:44:21.489Z,67.85
2022-10-04T02:46:57.297Z,67.81
2022-10-04T02:49:42.212Z,67.91
2022-10-04T02:52:24.457Z,67.85
2022-10-04T02:55:04.527Z,67.85
2022-10-04T02:57:35.876Z,67.77
2022-10-04T03:00:12.373Z,67.85
2022-10-04T03:02:40.382Z,68.03
2022-10-04T03:05:13.311Z,68.09
2022-10-04T03:07:41.249Z,68.09
2022-10-04T03:10:12.716Z,68.08
2022-10-04T03:12:42.406Z,68.12
2022-10-04T03:15:14.177Z,68.30
2022-10-04T03:17:43.887Z,68.40
2022-10-04T03:20:16.462Z,68.45
2022-10-04T03:22:51.081Z,68.35
2022-10-04T03:25:31.073Z,68.47
2022-10-04T03:28:02.993Z,68.46
2022-10-04T03:30:32.687Z,68.50
2022-10-04T03:33:00.462Z,68.63
2022-10-04T03:35:31.614Z,68.57
2022-10-04T03:38:03.469Z,68.73
2022-10-04T03:40:33.209Z,68.61
2022-10-04T03:43:04.991Z,68.69
2022-10-04T03:45:35.745Z,68.69
2022-10-04T03:48:10.102Z,68.76
2022-10-04T03:50:48.170Z,68.85
2022-10-04T03:53:24.363Z,68.86
2022-10-04T03:55:52.853Z,68.84
2022-10-04T03:58:20.932Z,68.85
2022-10-04T04:01:26.083Z,68.82
2022-10-04T04:04:13.171Z,68.86
2022-10-04T04:07:10.558Z,68.90
2022-10-04T04:09:51.392Z,68.87
2022-10-04T04:12:27.996Z,69.01
2022-10-04T04:14:55.728Z,69.03
2022-10-04T04:17:28.859Z,69.04
2022-10-04T04:20:07.413Z,69.10
2022-10-04T04:22:37.338Z,69.28
2022-10-04T04:25:12.262Z,69.14
2022-10-04T04:27:43.826Z,69.25
2022-10-04T04:30:16.930Z,69.39
2022-10-04T04:32:55.711Z,69.35
2022-10-04T04:35:32.313Z,69.38
2022-10-04T04:38:05.496Z,69.48
2022-10-04T04:40:34.028Z,69.48
2022-10-04T04:43:03.380Z,69.66
2022-10-04T04:45:34.051Z,69.58
2022-10-04T04:48:03.810Z,69.60
2022-10-04T04:50:37.479Z,69.66
2022-10-04T04:53:26.857Z,69.76
2022-10-04T04:56:04.618Z,69.67
2022-10-04T04:58:38.046Z,69.54
2022-10-04T05:01:18.517Z,69.51
2022-10-04T05:04:03.691Z,69.46
2022-10-04T05:06:34.046Z,69.62
2022-10-04T05:09:03.488Z,69.74
2022-10-04T05:11:37.818Z,69.59
2022-10-04T05:14:11.052Z,69.64
2022-10-04T05:16:55.782Z,69.54
2022-10-04T05:19:39.581Z,69.58
2022-10-04T05:22:11.494Z,69.46
2022-10-04T05:24:48.549Z,69.49
2022-10-04T05:27:25.880Z,69.50
2022-10-04T05:30:12.510Z,69.69
2022-10-04T05:32:54.822Z,69.57
2022-10-04T05:35:23.190Z,69.70
2022-10-04T05:37:50.803Z,69.63
2022-10-04T05:40:36.959Z,69.60
2022-10-04T05:43:36.781Z,69.62
2022-10-04T05:46:18.920Z,69.60
2022-10-04T05:48:53.157Z,69.61
2022-10-04T05:51:28.078Z,69.66
2022-10-04T05:53:59.854Z,69.82
2022-10-04T05:56:30.365Z,69.92
2022-10-04T05:59:23.028Z,69.77
2022-10-04T06:02:09.375Z,69.80
2022-10-04T06:04:53.184Z,69.96
2022-10-04T06:07:23.885Z,69.76
2022-10-04T06:10:07.805Z,69.73
2022-10-04T06:12:46.940Z,69.67
2022-10-04T06:15:36.957Z,69.74
2022-10-04T06:18:36.980Z,69.71
2022-10-04T06:21:28.548Z,69.66
2022-10-04T06:24:15.843Z,69.58
2022-10-04T06:26:48.387Z,69.67
2022-10-04T06:29:21.317Z,69.86
2022-10-04T06:32:13.317Z,69.76
2022-10-04T06:35:04.004Z,69.64
2022-10-04T06:37:49.978Z,69.75
2022-10-04T06:40:36.719Z,69.83
2022-10-04T06:43:20.384Z,69.71
2022-10-04T06:46:14.259Z,69.66
2022-10-04T06:48:59.179Z,69.39
2022-10-04T06:51:40.934Z,69.47
2022-10-04T06:54:40.084Z,69.50
2022-10-04T06:57:31.678Z,69.63
2022-10-04T07:00:05.970Z,69.72
2022-10-04T07:02:45.604Z,69.52
2022-10-04T07:05:13.153Z,69.58
2022-10-04T07:07:48.624Z,69.65
2022-10-04T07:10:50.089Z,69.53
2022-10-04T07:13:47.191Z,69.48
2022-10-04T07:16:17.529Z,69.46
2022-10-04T07:18:54.045Z,69.33
2022-10-04T07:21:27.949Z,69.10
2022-10-04T07:24:04.076Z,69.45
2022-10-04T07:26:44.103Z,69.46
2022-10-04T07:29:23.399Z,69.26
2022-10-04T07:32:10.049Z,69.20
2022-10-04T07:34:54.896Z,69.36
2022-10-04T07:37:27.439Z,69.14
2022-10-04T07:40:22.590Z,69.04
2022-10-04T07:43:06.338Z,69.09
2022-10-04T07:45:39.879Z,69.05
2022-10-04T07:48:24.912Z,69.04
2022-10-04T07:51:25.504Z,69.12
2022-10-04T07:54:05.060Z,69.26
2022-10-04T07:57:00.217Z,69.07
2022-10-04T08:00:05.932Z,68.65
2022-10-04T08:02:56.247Z,68.71
2022-10-04T08:05:34.734Z,68.78
2022-10-04T08:08:05.517Z,68.80
2022-10-04T08:10:56.510Z,68.24
2022-10-04T08:13:56.950Z,68.36
2022-10-04T08:16:41.166Z,68.44
2022-10-04T08:19:40.808Z,68.69
2022-10-04T08:22:47.723Z,68.67
2022-10-04T08:25:29.518Z,68.37
2022-10-04T08:28:45.773Z,68.48
2022-10-04T08:31:29.909Z,68.39
2022-10-04T08:34:21.585Z,68.51
2022-10-04T08:36:56.544Z,68.47
2022-10-04T08:39:56.702Z,68.14
2022-10-04T08:42:49.841Z,68.21
2022-10-04T08:45:44.979Z,68.38
2022-10-04T08:48:46.571Z,68.32
2022-10-04T08:51:40.074Z,68.12
2022-10-04T08:54:44.927Z,68.29
2022-10-04T08:57:31.759Z,68.35
2022-10-04T09:00:31.582Z,68.22
2022-10-04T09:03:31.251Z,68.11
2022-10-04T09:06:01.306Z,68.24
2022-10-04T09:08:59.185Z,68.04
2022-10-04T09:11:58.746Z,67.62
2022-10-04T09:14:58.280Z,67.87
2022-10-04T09:17:46.920Z,67.72
2022-10-04T09:20:41.000Z,67.81
2022-10-04T09:23:31.596Z,67.21
2022-10-04T09:26:10.321Z,67.19
2022-10-04T09:29:10.015Z,67.16
2022-10-04T09:32:09.511Z,67.53
2022-10-04T09:35:11.984Z,67.32
2022-10-04T09:37:55.558Z,67.38
2022-10-04T09:40:29.247Z,66.80
2022-10-04T09:43:28.841Z,65.91
2022-10-04T09:46:16.192Z,65.87
2022-10-04T09:48:59.833Z,66.35
2022-10-04T09:51:46.124Z,66.20
2022-10-04T09:54:41.090Z,65.80
2022-10-04T09:57:18.961Z,65.28
2022-10-04T10:00:22.232Z,64.08
2022-10-04T10:03:17.387Z,63.67
2022-10-04T10:05:46.158Z,64.23
2022-10-04T10:08:56.657Z,64.32
2022-10-04T10:11:49.381Z,63.49
2022-10-04T10:14:44.459Z,63.46
2022-10-04T10:17:36.411Z,64.14
2022-10-04T10:20:40.263Z,64.06
2022-10-04T10:23:45.243Z,63.57
2022-10-04T10:26:28.123Z,63.40
2022-10-04T10:29:14.568Z,63.16
2022-10-04T10:32:00.872Z,62.80
2022-10-04T10:34:52.399Z,62.59
2022-10-04T10:37:35.932Z,63.18
2022-10-04T10:40:17.460Z,62.98
2022-10-04T10:42:50.961Z,63.20
2022-10-04T10:45:38.242Z,63.57
2022-10-04T10:48:27.662Z,62.99
2022-10-04T10:51:10.322Z,62.66
2022-10-04T10:54:09.860Z,62.97
2022-10-04T10:56:56.730Z,63.30
2022-10-04T10:59:56.266Z,63.18
2022-10-04T11:03:12.116Z,62.80
2022-10-04T11:06:13.982Z,62.86
2022-10-04T11:09:18.381Z,63.28
2022-10-04T11:11:45.876Z,63.48
2022-10-04T11:15:22.755Z,62.42
2022-10-04T11:18:08.570Z,61.74
2022-10-04T11:21:08.204Z,61.57
2022-10-04T11:24:04.493Z,61.56
2022-10-04T11:27:10.988Z,61.58
2022-10-04T11:30:01.610Z,61.24
2022-10-04T11:32:45.488Z,61.18
2022-10-04T11:35:35.265Z,60.75
2022-10-04T11:38:20.257Z,60.39
2022-10-04T11:40:56.446Z,60.06
2022-10-04T11:43:40.306Z,60.26
2022-10-04T11:46:27.114Z,60.82
2022-10-04T11:49:08.247Z,60.98
2022-10-04T11:51:58.685Z,60.85
2022-10-04T11:54:49.915Z,60.57
2022-10-04T11:57:23.598Z,60.78
2022-10-04T12:00:07.409Z,60.79
2022-10-04T12:03:11.231Z,60.66
2022-10-04T12:06:09.214Z,60.71
2022-10-04T12:09:11.120Z,60.95
2022-10-04T12:12:13.104Z,60.52
2022-10-04T12:22:24.229Z,60.18
2022-10-04T12:36:39.765Z,60.89
2022-10-04T12:39:24.512Z,61.06
2022-10-04T12:42:23.031Z,60.49
2022-10-04T12:44:50.547Z,59.61
2022-10-04T12:47:34.114Z,58.66
2022-10-04T12:50:43.932Z,57.98
2022-10-04T12:53:55.571Z,57.19
2022-10-04T12:57:31.254Z,57.11
2022-10-04T13:01:01.416Z,57.26
2022-10-04T13:03:43.298Z,57.36
2022-10-04T13:06:24.436Z,57.55
2022-10-04T13:09:11.971Z,57.58
2022-10-04T13:14:42.025Z,57.52
2022-10-04T13:18:12.595Z,57.61
2022-10-04T13:24:31.822Z,57.22
2022-10-04T13:27:16.812Z,57.02
2022-10-04T13:30:33.873Z,56.89
2022-10-04T13:41:10.107Z,57.16
2022-10-04T13:44:04.750Z,57.05
2022-10-04T13:46:41.906Z,57.44
2022-10-04T13:50:13.291Z,56.53
2022-10-04T13:53:43.403Z,56.32
2022-10-04T13:56:43.059Z,56.87
2022-10-04T13:59:35.351Z,55.77
2022-10-04T14:02:21.700Z,56.10
2022-10-04T14:05:10.626Z,55.60
2022-10-04T14:08:07.670Z,54.87
2022-10-04T14:11:07.992Z,53.83
2022-10-04T14:14:11.831Z,53.03
2022-10-04T14:17:14.101Z,52.10
2022-10-04T14:20:00.137Z,51.80
2022-10-04T14:23:00.539Z,51.34
2022-10-04T14:25:44.089Z,52.08
2022-10-04T14:32:03.267Z,51.11
2022-10-04T14:34:47.316Z,50.56
2022-10-04T14:37:57.802Z,50.16
2022-10-04T14:40:53.227Z,49.49
2022-10-04T14:43:54.776Z,49.67
2022-10-04T14:46:45.440Z,49.18
2022-10-04T14:49:45.659Z,48.84
2022-10-04T14:52:26.725Z,48.82
2022-10-04T14:55:11.413Z,48.88
2022-10-04T14:57:43.515Z,47.86
2022-10-04T15:00:23.691Z,47.37
2022-10-04T15:03:14.448Z,47.26
2022-10-04T15:06:00.941Z,47.20
2022-10-04T15:08:41.815Z,47.07
2022-10-04T15:11:32.035Z,46.46
2022-10-04T15:14:22.000Z,46.68
2022-10-04T15:17:03.595Z,46.15
2022-10-04T15:19:44.156Z,45.22
2022-10-04T15:22:23.920Z,45.46
2022-10-04T15:24:53.803Z,45.45
2022-10-04T15:27:27.692Z,44.78
2022-10-04T15:30:08.435Z,43.99
2022-10-04T15:32:51.964Z,43.90
2022-10-04T15:35:38.274Z,43.96
2022-10-04T15:38:22.028Z,44.27
2022-10-04T15:40:49.496Z,44.57
2022-10-04T15:43:38.896Z,44.75
2022-10-04T15:46:41.378Z,44.81
2022-10-04T15:49:40.963Z,44.88
2022-10-04T15:52:44.453Z,45.25
2022-10-04T15:55:18.240Z,45.30
2022-10-04T15:57:45.760Z,45.68
2022-10-04T16:00:16.110Z,45.75
2022-10-04T16:03:02.370Z,45.95
2022-10-04T16:05:42.205Z,46.07
2022-10-04T16:08:19.481Z,46.33
2022-10-04T16:11:03.242Z,46.38
2022-10-04T16:13:46.778Z,46.30
2022-10-04T16:16:17.612Z,46.67
2022-10-04T16:19:05.778Z,46.70
2022-10-04T16:21:49.251Z,47.00
2022-10-04T16:24:19.767Z,47.13
2022-10-04T16:26:47.894Z,47.34
2022-10-04T16:30:02.410Z,47.38
2022-10-04T16:33:07.396Z,47.78
2022-10-04T16:36:00.713Z,47.98
2022-10-04T16:39:03.974Z,48.00
2022-10-04T16:41:51.915Z,48.35
2022-10-04T16:44:51.436Z,48.58
2022-10-04T16:47:30.995Z,48.61
2022-10-04T16:50:02.103Z,48.59
2022-10-04T16:52:50.396Z,48.99
2022-10-04T16:55:33.933Z,48.84
2022-10-04T16:58:38.737Z,48.98
2022-10-04T17:01:22.471Z,49.19
2022-10-04T17:04:09.009Z,49.51
2022-10-04T17:06:52.571Z,49.56
2022-10-04T17:09:52.244Z,49.83
2022-10-04T17:12:37.230Z,49.96
2022-10-04T17:15:16.789Z,50.04
2022-10-04T17:17:48.387Z,50.25
2022-10-04T17:20:38.624Z,50.55
2022-10-04T17:23:12.614Z,50.58
2022-10-04T17:26:12.087Z,50.81
2022-10-04T17:28:56.875Z,50.81
2022-10-04T17:31:34.147Z,51.10
2022-10-04T17:34:36.071Z,51.08
2022-10-04T17:37:13.823Z,51.34
2022-10-04T17:39:46.671Z,51.41
2022-10-04T17:42:29.624Z,51.51
2022-10-04T17:45:14.711Z,51.51
2022-10-04T17:48:18.243Z,51.74
2022-10-04T17:51:25.579Z,51.89
2022-10-04T17:54:39.388Z,51.89
2022-10-04T17:57:09.993Z,52.22
2022-10-04T18:00:09.323Z,52.20
2022-10-04T18:02:59.802Z,52.31
2022-10-04T18:05:42.602Z,52.28
2022-10-04T18:08:21.983Z,52.49
2022-10-04T18:11:20.533Z,52.60
2022-10-04T18:14:02.596Z,52.68
2022-10-04T18:16:42.066Z,52.61
2022-10-04T18:19:41.622Z,52.81
2022-10-04T18:22:17.989Z,52.79
2022-10-04T18:24:48.318Z,52.94
2022-10-04T18:27:26.949Z,52.98
2022-10-04T18:30:00.632Z,52.99
2022-10-04T18:32:33.863Z,53.17
2022-10-04T18:35:18.605Z,53.36
2022-10-04T18:37:46.216Z,53.48
2022-10-04T18:40:41.581Z,53.50
2022-10-04T18:43:35.786Z,53.60
2022-10-04T18:46:15.546Z,53.57
2022-10-04T18:48:52.181Z,53.76
2022-10-04T18:51:30.385Z,53.83
2022-10-04T18:54:31.217Z,53.79
2022-10-04T18:57:25.752Z,53.93
2022-10-04T19:00:21.006Z,54.01
2022-10-04T19:03:27.894Z,54.15
2022-10-04T19:06:07.678Z,54.46
2022-10-04T19:09:07.156Z,54.46
2022-10-04T19:11:59.758Z,54.63
2022-10-04T19:14:43.387Z,54.69
2022-10-04T19:17:26.267Z,54.87
2022-10-04T19:20:19.118Z,54.85
2022-10-04T19:22:59.159Z,55.04
2022-10-04T19:26:26.302Z,55.16
2022-10-04T19:28:41.512Z,55.32
2022-10-04T19:31:27.953Z,55.40
2022-10-04T19:34:06.121Z,55.59
2022-10-04T19:37:03.622Z,55.61
2022-10-04T19:39:49.999Z,55.65
2022-10-04T19:42:29.283Z,55.70
2022-10-04T19:45:25.258Z,55.77
2022-10-04T19:47:59.093Z,55.92
2022-10-04T19:50:40.006Z,56.14
2022-10-04T19:53:31.358Z,56.18
2022-10-04T19:56:01.094Z,56.45
2022-10-04T19:58:45.621Z,56.40
2022-10-04T20:01:24.061Z,56.35
2022-10-04T20:04:09.503Z,56.47
2022-10-04T20:06:55.700Z,56.60
2022-10-04T20:09:48.099Z,56.72
2022-10-04T20:12:40.262Z,56.84
2022-10-04T20:15:16.895Z,56.95
2022-10-04T20:17:47.457Z,57.03
2022-10-04T20:20:38.701Z,57.14
2022-10-04T20:23:07.953Z,57.22
2022-10-04T20:25:54.453Z,57.31
2022-10-04T20:28:32.211Z,57.42
2022-10-04T20:31:02.344Z,57.43
2022-10-04T20:33:32.922Z,57.40
2022-10-04T20:36:10.989Z,57.41
2022-10-04T20:38:54.473Z,57.49
2022-10-04T20:41:47.229Z,57.60
2022-10-04T20:44:47.194Z,57.54
2022-10-04T20:47:35.562Z,57.65
2022-10-04T20:50:14.305Z,57.71
2022-10-04T20:52:55.640Z,57.73
2022-10-04T20:55:28.075Z,57.84
2022-10-04T20:58:01.553Z,57.91
2022-10-04T21:00:34.128Z,58.01
2022-10-04T21:03:22.082Z,58.18
2022-10-04T21:06:08.889Z,58.06
2022-10-04T21:08:37.929Z,58.15
2022-10-04T21:11:09.973Z,58.22
2022-10-04T21:13:57.298Z,58.43
2022-10-04T21:16:44.652Z,58.39
2022-10-04T21:19:32.749Z,58.52
2022-10-04T21:22:06.524Z,58.46
2022-10-04T21:24:53.426Z,58.60
2022-10-04T21:27:37.130Z,58.65
2022-10-04T21:30:24.743Z,58.77
2022-10-04T21:32:52.298Z,59.01
2022-10-04T21:35:19.935Z,59.13
2022-10-04T21:37:47.493Z,59.10
2022-10-04T21:40:15.119Z,59.15
2022-10-04T21:42:42.717Z,59.30
2022-10-04T21:45:10.566Z,59.46
2022-10-04T21:47:38.185Z,59.57
2022-10-04T21:50:06.207Z,59.52
2022-10-04T21:52:33.798Z,59.61
2022-10-04T21:55:01.389Z,59.67
2022-10-04T21:57:34.693Z,59.63
2022-10-04T22:00:05.186Z,59.83
2022-10-04T22:02:32.797Z,59.71
2022-10-04T22:18:22.514Z,60.05
2022-10-04T22:20:50.159Z,60.12
2022-10-04T22:23:24.890Z,60.27
2022-10-04T22:25:53.813Z,60.38
2022-10-04T22:28:23.057Z,60.37
2022-10-04T22:30:52.198Z,60.31
2022-10-04T22:33:40.214Z,60.34
2022-10-04T22:36:14.537Z,60.32
2022-10-04T22:38:44.585Z,60.34
2022-10-04T22:41:15.376Z,60.46
2022-10-04T22:43:43.030Z,60.61
2022-10-04T22:46:17.883Z,60.65
2022-10-04T22:48:48.050Z,60.68
2022-10-04T22:51:15.613Z,60.61
2022-10-04T22:53:46.481Z,60.59
2022-10-04T22:56:15.990Z,60.71
2022-10-04T22:58:43.931Z,60.84
2022-10-04T23:01:14.802Z,60.92
2022-10-04T23:03:47.645Z,60.95
2022-10-04T23:06:15.520Z,61.03
2022-10-04T23:08:43.902Z,61.11
2022-10-04T23:11:11.585Z,61.11
2022-10-04T23:13:39.266Z,61.14
2022-10-04T23:16:16.495Z,61.03
2022-10-04T23:18:44.117Z,61.24
2022-10-04T23:21:33.837Z,61.28
2022-10-04T23:24:17.459Z,61.34
2022-10-04T23:26:49.634Z,61.35
2022-10-04T23:29:25.404Z,61.48
2022-10-04T23:31:54.041Z,61.49
2022-10-04T23:34:34.323Z,61.62
2022-10-04T23:37:03.300Z,61.55
2022-10-04T23:39:34.789Z,61.70
2022-10-04T23:42:21.461Z,61.86
2022-10-04T23:44:50.473Z,61.82
2022-10-04T23:47:19.659Z,61.76
2022-10-04T23:49:51.217Z,61.83
2022-10-04T23:52:27.234Z,62.00
2022-10-04T23:54:55.640Z,61.94
2022-10-04T23:57:26.814Z,62.00
2022-10-04T23:59:55.301Z,62.11
